createdAt,value
2023-11-14T00:01:13.913Z,9.50
2023-11-14T00:03:40.617Z,10.85
2023-11-14T00:06:07.447Z,9.70
2023-11-14T00:08:34.021Z,8.55
2023-11-14T00:11:00.733Z,9.38
2023-11-14T00:13:27.742Z,9.38
2023-11-14T00:15:54.485Z,9.52
2023-11-14T00:18:21.184Z,8.30
2023-11-14T00:20:47.858Z,8.30
2023-11-14T00:23:14.472Z,9.75
2023-11-14T00:25:41.101Z,8.07
2023-11-14T00:28:07.708Z,8.80
2023-11-14T00:30:34.317Z,8.85
2023-11-14T00:33:00.972Z,9.20
2023-11-14T00:35:27.622Z,8.60
2023-11-14T00:37:54.336Z,10.25
2023-11-14T00:40:20.974Z,9.75
2023-11-14T00:42:47.625Z,10.45
2023-11-14T00:45:14.251Z,10.27
2023-11-14T00:47:40.926Z,9.57
2023-11-14T00:50:08.822Z,9.30
2023-11-14T00:52:35.492Z,8.97
2023-11-14T00:55:02.093Z,8.07
2023-11-14T00:57:28.950Z,9.38
2023-11-14T00:59:55.589Z,9.40
2023-11-14T01:02:22.257Z,10.65
2023-11-14T01:04:48.997Z,8.93
2023-11-14T01:07:15.624Z,9.25
2023-11-14T01:09:42.195Z,9.60
2023-11-14T01:12:08.873Z,8.85
2023-11-14T01:14:35.449Z,10.50
2023-11-14T01:17:02.151Z,9.07
2023-11-14T01:19:28.895Z,11.40
2023-11-14T01:21:55.481Z,11.10
2023-11-14T01:24:22.064Z,8.80
2023-11-14T01:26:48.692Z,10.18
2023-11-14T01:29:15.242Z,9.48
2023-11-14T01:31:41.874Z,9.50
2023-11-14T01:34:08.565Z,10.52
2023-11-14T01:36:35.142Z,9.88
2023-11-14T01:39:01.726Z,10.20
2023-11-14T01:41:28.412Z,10.77
2023-11-14T01:43:55.098Z,10.98
2023-11-14T01:46:22.007Z,8.88
2023-11-14T01:48:51.025Z,10.95
2023-11-14T01:51:19.475Z,9.65
2023-11-14T01:53:49.705Z,9.65
2023-11-14T01:56:17.207Z,9.40
2023-11-14T01:58:44.454Z,10.38
2023-11-14T02:01:11.798Z,9.13
2023-11-14T02:03:38.521Z,9.50
2023-11-14T02:06:05.340Z,8.90
2023-11-14T02:08:32.502Z,9.13
2023-11-14T02:10:59.891Z,9.35
2023-11-14T02:13:26.756Z,9.10
2023-11-14T02:15:53.343Z,8.63
2023-11-14T02:18:20.990Z,9.65
2023-11-14T02:20:47.748Z,8.95
2023-11-14T02:23:17.406Z,9.13
2023-11-14T02:25:45.176Z,9.55
2023-11-14T02:28:12.137Z,9.38
2023-11-14T02:30:38.940Z,9.05
2023-11-14T02:33:06.519Z,10.88
2023-11-14T02:35:33.099Z,8.20
2023-11-14T02:37:59.945Z,9.90
2023-11-14T02:40:26.903Z,8.57
2023-11-14T02:42:53.552Z,8.95
2023-11-14T02:45:20.947Z,10.23
2023-11-14T02:47:48.117Z,9.48
2023-11-14T02:50:30.545Z,9.65
2023-11-14T02:52:57.250Z,9.68
2023-11-14T02:55:23.804Z,9.05
2023-11-14T02:57:50.381Z,9.07
2023-11-14T03:00:17.162Z,12.40
2023-11-14T03:02:44.670Z,10.57
2023-11-14T03:05:11.577Z,9.23
2023-11-14T03:07:38.210Z,9.48
2023-11-14T03:10:05.353Z,9.10
2023-11-14T03:12:32.038Z,9.70
2023-11-14T03:14:58.641Z,9.82
2023-11-14T03:17:25.571Z,8.32
2023-11-14T03:19:52.274Z,9.07
2023-11-14T03:22:18.904Z,9.98
2023-11-14T03:24:45.489Z,9.95
2023-11-14T03:27:12.103Z,9.98
2023-11-14T03:29:38.690Z,9.50
2023-11-14T03:32:05.707Z,9.52
2023-11-14T03:34:32.400Z,9.43
2023-11-14T03:36:59.066Z,9.80
2023-11-14T03:39:25.651Z,9.13
2023-11-14T03:41:52.229Z,9.77
2023-11-14T03:44:18.848Z,9.07
2023-11-14T03:46:45.510Z,10.27
2023-11-14T03:49:12.143Z,8.73
2023-11-14T03:51:38.754Z,9.60
2023-11-14T03:54:05.472Z,9.25
2023-11-14T03:56:32.033Z,8.55
2023-11-14T03:58:58.681Z,9.93
2023-11-14T04:01:25.320Z,9.25
2023-11-14T04:03:52.064Z,8.93
2023-11-14T04:06:18.817Z,9.07
2023-11-14T04:08:45.468Z,9.98
2023-11-14T04:11:12.104Z,9.40
2023-11-14T04:13:38.820Z,9.80
2023-11-14T04:16:09.547Z,10.18
2023-11-14T04:18:37.100Z,9.43
2023-11-14T04:21:04.141Z,8.98
2023-11-14T04:23:30.724Z,9.75
2023-11-14T04:25:57.467Z,8.57
2023-11-14T04:28:24.084Z,9.82
2023-11-14T04:30:50.607Z,8.88
2023-11-14T04:33:17.283Z,9.45
2023-11-14T04:35:43.940Z,10.32
2023-11-14T04:38:10.574Z,9.98
2023-11-14T04:40:37.279Z,9.23
2023-11-14T04:43:03.930Z,8.45
2023-11-14T04:45:30.710Z,9.18
2023-11-14T04:47:58.491Z,9.18
2023-11-14T04:50:25.166Z,8.47
2023-11-14T04:52:51.766Z,9.52
2023-11-14T04:55:18.400Z,9.35
2023-11-14T04:57:45.053Z,10.38
2023-11-14T05:00:11.931Z,10.05
2023-11-14T05:02:38.567Z,10.00
2023-11-14T05:05:05.755Z,9.23
2023-11-14T05:07:32.409Z,9.20
2023-11-14T05:09:59.447Z,9.15
2023-11-14T05:12:26.145Z,9.00
2023-11-14T05:14:52.742Z,8.60
2023-11-14T05:17:19.470Z,8.48
2023-11-14T05:19:48.651Z,9.45
2023-11-14T05:22:15.614Z,7.88
2023-11-14T05:24:42.205Z,9.02
2023-11-14T05:27:08.775Z,9.27
2023-11-14T05:29:37.636Z,9.93
2023-11-14T05:32:05.081Z,9.57
2023-11-14T05:34:31.765Z,8.73
2023-11-14T05:36:58.375Z,9.27
2023-11-14T05:39:24.995Z,10.63
2023-11-14T05:41:51.676Z,8.65
2023-11-14T05:44:18.259Z,8.10
2023-11-14T05:46:44.890Z,8.63
2023-11-14T05:49:12.321Z,8.88
2023-11-14T05:51:39.055Z,10.13
2023-11-14T05:54:06.252Z,8.20
2023-11-14T05:56:32.925Z,8.90
2023-11-14T05:58:59.540Z,8.70
2023-11-14T06:01:26.171Z,8.45
2023-11-14T06:03:52.904Z,8.95
2023-11-14T06:06:19.635Z,9.43
2023-11-14T06:08:46.218Z,7.65
2023-11-14T06:11:16.571Z,9.27
2023-11-14T06:13:45.084Z,8.02
2023-11-14T06:16:11.991Z,9.48
2023-11-14T06:18:38.643Z,8.95
2023-11-14T06:21:05.498Z,9.02
2023-11-14T06:23:32.100Z,9.23
2023-11-14T06:25:59.005Z,10.18
2023-11-14T06:28:25.622Z,9.27
2023-11-14T06:30:52.194Z,9.00
2023-11-14T06:33:18.783Z,8.45
2023-11-14T06:35:45.372Z,8.10
2023-11-14T06:38:11.966Z,9.25
2023-11-14T06:40:38.658Z,11.85
2023-11-14T06:43:05.309Z,9.20
2023-11-14T06:45:31.910Z,10.57
2023-11-14T06:47:58.789Z,9.43
2023-11-14T06:50:33.906Z,10.25
2023-11-14T06:53:08.790Z,9.77
2023-11-14T06:55:35.411Z,8.15
2023-11-14T06:58:02.093Z,7.90
2023-11-14T07:00:28.804Z,7.15
2023-11-14T07:02:55.507Z,7.93
2023-11-14T07:05:22.251Z,8.55
2023-11-14T07:07:48.995Z,10.80
2023-11-14T07:10:15.644Z,8.65
2023-11-14T07:12:42.238Z,8.35
2023-11-14T07:15:09.342Z,7.25
2023-11-14T07:17:36.120Z,8.55
2023-11-14T07:20:03.763Z,9.20
2023-11-14T07:22:30.582Z,7.47
2023-11-14T07:24:57.203Z,8.13
2023-11-14T07:27:23.853Z,7.90
2023-11-14T07:29:50.426Z,9.20
2023-11-14T07:32:17.121Z,7.97
2023-11-14T07:34:43.768Z,6.78
2023-11-14T07:37:10.365Z,8.05
2023-11-14T07:39:36.972Z,6.72
2023-11-14T07:42:03.796Z,7.22
2023-11-14T07:44:30.378Z,7.47
2023-11-14T07:47:07.802Z,7.38
2023-11-14T07:49:42.474Z,8.05
2023-11-14T07:52:09.089Z,7.47
2023-11-14T07:54:35.877Z,6.75
2023-11-14T07:57:02.513Z,7.38
2023-11-14T07:59:30.692Z,7.65
2023-11-14T08:01:57.608Z,8.25
2023-11-14T08:04:24.481Z,8.27
2023-11-14T08:06:51.572Z,8.07
2023-11-14T08:09:18.199Z,6.93
2023-11-14T08:11:44.810Z,7.53
2023-11-14T08:14:11.447Z,7.90
2023-11-14T08:16:38.081Z,8.98
2023-11-14T08:19:04.747Z,7.72
2023-11-14T08:21:31.350Z,10.00
2023-11-14T08:23:57.986Z,7.57
2023-11-14T08:26:24.689Z,7.28
2023-11-14T08:28:51.370Z,9.57
2023-11-14T08:31:18.169Z,7.45
2023-11-14T08:33:44.775Z,7.50
2023-11-14T08:36:11.464Z,8.00
2023-11-14T08:38:38.102Z,7.18
2023-11-14T08:41:05.257Z,7.93
2023-11-14T08:43:31.949Z,7.30
2023-11-14T08:45:58.627Z,9.18
2023-11-14T08:48:25.256Z,7.30
2023-11-14T08:50:54.718Z,6.82
2023-11-14T08:53:21.757Z,8.57
2023-11-14T08:55:48.509Z,7.88
2023-11-14T08:58:15.128Z,6.95
2023-11-14T09:00:41.718Z,4.97
2023-11-14T09:03:08.677Z,3.90
2023-11-14T09:05:35.875Z,1.70
2023-11-14T09:08:02.867Z,1.38
2023-11-14T09:10:29.434Z,2.80
2023-11-14T09:12:55.985Z,6.38
2023-11-14T09:15:22.606Z,6.00
2023-11-14T09:17:53.113Z,6.53
2023-11-14T09:20:22.193Z,6.80
2023-11-14T09:22:48.785Z,6.15
2023-11-14T09:25:15.831Z,7.45
2023-11-14T09:27:42.958Z,7.95
2023-11-14T09:30:10.072Z,7.85
2023-11-14T09:32:36.922Z,7.57
2023-11-14T09:35:03.988Z,8.23
2023-11-14T09:37:30.725Z,7.32
2023-11-14T09:39:57.318Z,7.20
2023-11-14T09:42:23.979Z,7.93
2023-11-14T09:44:50.823Z,8.05
2023-11-14T09:47:17.480Z,6.38
2023-11-14T09:49:44.348Z,6.85
2023-11-14T09:52:13.857Z,5.57
2023-11-14T09:54:43.396Z,5.45
2023-11-14T09:57:10.707Z,5.40
2023-11-14T09:59:39.106Z,6.10
2023-11-14T10:02:05.978Z,5.70
2023-11-14T10:04:32.646Z,5.30
2023-11-14T10:06:59.705Z,4.93
2023-11-14T10:09:27.001Z,5.72
2023-11-14T10:12:12.630Z,6.35
2023-11-14T10:14:43.948Z,5.47
2023-11-14T10:17:10.512Z,4.60
2023-11-14T10:19:37.101Z,4.97
2023-11-14T10:22:04.583Z,4.90
2023-11-14T10:24:31.257Z,4.72
2023-11-14T10:26:57.984Z,3.10
2023-11-14T10:29:24.732Z,3.15
2023-11-14T10:31:52.819Z,2.38
2023-11-14T10:34:25.700Z,2.47
2023-11-14T10:36:52.875Z,1.92
2023-11-14T10:39:19.473Z,2.35
2023-11-14T10:41:46.700Z,2.75
2023-11-14T10:44:14.293Z,2.33
2023-11-14T10:46:50.949Z,2.80
2023-11-14T10:49:17.973Z,3.25
2023-11-14T10:51:47.201Z,3.40
2023-11-14T10:54:14.537Z,2.70
2023-11-14T10:56:48.943Z,2.95
2023-11-14T10:59:19.519Z,2.53
2023-11-14T11:01:47.342Z,2.83
2023-11-14T11:04:15.895Z,2.47
2023-11-14T11:06:43.168Z,2.70
2023-11-14T11:09:09.725Z,3.03
2023-11-14T11:11:44.435Z,3.75
2023-11-14T11:14:14.344Z,2.35
2023-11-14T11:16:46.058Z,2.75
2023-11-14T11:19:25.354Z,2.58
2023-11-14T11:22:06.675Z,2.95
2023-11-14T11:24:41.084Z,3.45
2023-11-14T11:27:14.811Z,3.38
2023-11-14T11:29:59.801Z,3.70
2023-11-14T11:32:34.862Z,4.00
2023-11-14T11:35:34.014Z,4.25
2023-11-14T11:38:11.319Z,3.40
2023-11-14T11:41:09.553Z,4.72
2023-11-14T11:43:39.670Z,3.92
2023-11-14T11:46:35.312Z,2.80
2023-11-14T11:49:11.025Z,3.80
2023-11-14T11:51:45.160Z,3.20
2023-11-14T11:54:30.354Z,3.50
2023-11-14T11:57:05.773Z,4.60
2023-11-14T11:59:41.555Z,4.97
2023-11-14T12:02:12.519Z,3.90
2023-11-14T12:04:40.236Z,3.63
2023-11-14T12:07:07.554Z,4.37
2023-11-14T12:09:34.172Z,3.95
2023-11-14T12:12:01.218Z,4.45
2023-11-14T12:14:27.912Z,4.88
2023-11-14T12:16:54.593Z,4.80
2023-11-14T12:19:21.202Z,3.95
2023-11-14T12:21:47.853Z,4.35
2023-11-14T12:24:15.338Z,4.55
2023-11-14T12:26:42.107Z,3.67
2023-11-14T12:29:09.898Z,4.85
2023-11-14T12:31:36.801Z,5.20
2023-11-14T12:34:03.953Z,5.07
2023-11-14T12:36:30.607Z,4.72
2023-11-14T12:39:12.871Z,4.18
2023-11-14T12:41:48.613Z,5.10
2023-11-14T12:44:15.766Z,4.13
2023-11-14T12:46:42.975Z,4.22
2023-11-14T12:49:14.308Z,4.50
2023-11-14T12:51:48.748Z,4.28
2023-11-14T12:54:20.209Z,4.20
2023-11-14T12:56:47.425Z,4.40
2023-11-14T12:59:14.206Z,5.22
2023-11-14T13:01:42.578Z,5.63
2023-11-14T13:04:13.053Z,4.68
2023-11-14T13:06:42.274Z,5.38
2023-11-14T13:09:08.941Z,4.60
2023-11-14T13:11:36.151Z,4.30
2023-11-14T13:14:04.007Z,5.78
2023-11-14T13:16:30.831Z,5.00
2023-11-14T13:18:57.902Z,5.13
2023-11-14T13:21:24.893Z,5.53
2023-11-14T13:23:52.178Z,4.90
2023-11-14T13:26:18.925Z,5.55
2023-11-14T13:28:45.618Z,4.95
2023-11-14T13:31:12.170Z,2.83
2023-11-14T13:33:38.872Z,2.85
2023-11-14T13:36:05.988Z,3.65
2023-11-14T13:38:33.888Z,3.25
2023-11-14T13:41:01.252Z,6.53
2023-11-14T13:43:28.040Z,5.70
2023-11-14T13:45:54.814Z,5.55
2023-11-14T13:48:21.592Z,5.68
2023-11-14T13:50:48.867Z,6.78
2023-11-14T13:53:16.276Z,6.72
2023-11-14T13:55:42.862Z,5.78
2023-11-14T13:58:09.586Z,6.40
2023-11-14T14:00:36.262Z,5.38
2023-11-14T14:03:03.059Z,5.93
2023-11-14T14:05:29.843Z,6.22
2023-11-14T14:07:56.622Z,5.35
2023-11-14T14:10:23.323Z,6.13
2023-11-14T14:12:49.962Z,5.60
2023-11-14T14:15:16.621Z,6.93
2023-11-14T14:17:45.650Z,6.65
2023-11-14T14:20:12.854Z,5.63
2023-11-14T14:22:39.588Z,5.25
2023-11-14T14:25:10.335Z,5.80
2023-11-14T14:27:37.780Z,5.78
2023-11-14T14:30:05.521Z,6.07
2023-11-14T14:32:32.539Z,5.63
2023-11-14T14:34:59.751Z,5.55
2023-11-14T14:37:26.886Z,6.07
2023-11-14T14:39:55.601Z,6.28
2023-11-14T14:44:48.801Z,5.57
2023-11-14T14:47:15.471Z,4.68
2023-11-14T14:49:42.893Z,4.40
2023-11-14T14:52:09.499Z,5.75
2023-11-14T14:54:39.316Z,5.28
2023-11-14T14:57:06.705Z,4.38
2023-11-14T14:59:33.388Z,4.53
2023-11-14T15:02:00.118Z,4.53
2023-11-14T15:04:27.377Z,5.50
2023-11-14T15:06:54.281Z,4.82
2023-11-14T15:09:20.825Z,4.47
2023-11-14T15:11:47.399Z,4.85
2023-11-14T15:14:14.124Z,4.75
2023-11-14T15:16:40.813Z,5.50
2023-11-14T15:19:07.613Z,4.90
2023-11-14T15:21:34.251Z,4.47
2023-11-14T15:24:00.867Z,4.88
2023-11-14T15:26:27.574Z,5.05
2023-11-14T15:28:54.235Z,5.57
2023-11-14T15:31:20.913Z,5.63
2023-11-14T15:33:47.640Z,4.90
2023-11-14T15:36:14.319Z,4.57
2023-11-14T15:38:40.921Z,4.70
2023-11-14T15:41:07.624Z,5.03
2023-11-14T15:43:34.304Z,4.90
2023-11-14T15:46:00.983Z,4.47
2023-11-14T15:48:27.622Z,5.35
2023-11-14T15:50:54.250Z,4.72
2023-11-14T15:53:20.832Z,4.18
2023-11-14T15:55:47.490Z,4.95
2023-11-14T15:58:14.120Z,5.05
2023-11-14T16:00:40.681Z,5.70
2023-11-14T16:03:07.312Z,5.43
2023-11-14T16:05:34.034Z,4.25
2023-11-14T16:08:00.953Z,5.07
2023-11-14T16:10:27.605Z,4.65
2023-11-14T16:12:54.225Z,5.25
2023-11-14T16:15:20.909Z,4.70
2023-11-14T16:17:47.760Z,4.72
2023-11-14T16:20:14.608Z,4.72
2023-11-14T16:22:41.252Z,5.03
2023-11-14T16:25:08.243Z,5.88
2023-11-14T16:27:34.859Z,5.60
2023-11-14T16:30:01.818Z,4.65
2023-11-14T16:32:28.557Z,5.00
2023-11-14T16:34:55.185Z,4.30
2023-11-14T16:37:21.787Z,4.47
2023-11-14T16:39:48.318Z,5.68
2023-11-14T16:42:14.935Z,5.40
2023-11-14T16:44:41.635Z,5.13
2023-11-14T16:47:08.364Z,4.68
2023-11-14T16:49:35.713Z,5.03
2023-11-14T16:52:02.373Z,5.38
2023-11-14T16:54:28.975Z,5.40
2023-11-14T16:56:55.525Z,4.93
2023-11-14T16:59:22.206Z,4.82
2023-11-14T17:01:48.801Z,6.90
2023-11-14T17:04:15.468Z,5.03
2023-11-14T17:06:42.111Z,6.53
2023-11-14T17:09:08.696Z,5.70
2023-11-14T17:11:35.310Z,5.00
2023-11-14T17:14:02.007Z,3.97
2023-11-14T17:16:30.140Z,4.10
2023-11-14T17:18:56.827Z,4.20
2023-11-14T17:21:24.158Z,4.60
2023-11-14T17:23:50.783Z,4.82
2023-11-14T17:26:19.402Z,4.13
2023-11-14T17:28:46.940Z,3.95
2023-11-14T17:31:13.524Z,4.20
2023-11-14T17:33:40.065Z,3.65
2023-11-14T17:36:07.310Z,3.88
2023-11-14T17:38:33.993Z,4.40
2023-11-14T17:41:00.630Z,4.40
2023-11-14T17:43:27.274Z,4.35
2023-11-14T17:45:53.870Z,4.65
2023-11-14T17:48:20.558Z,4.07
2023-11-14T17:50:47.692Z,4.65
2023-11-14T17:53:14.555Z,4.47
2023-11-14T17:55:41.237Z,4.40
2023-11-14T17:58:07.859Z,4.78
2023-11-14T18:00:34.617Z,4.47
2023-11-14T18:03:01.529Z,5.35
2023-11-14T18:05:29.510Z,3.95
2023-11-14T18:07:56.445Z,4.20
2023-11-14T18:10:23.207Z,4.10
2023-11-14T18:12:50.963Z,5.85
2023-11-14T18:15:18.016Z,4.95
2023-11-14T18:17:44.796Z,3.92
2023-11-14T18:20:14.125Z,4.68
2023-11-14T18:22:40.915Z,4.65
2023-11-14T18:25:08.024Z,4.57
2023-11-14T18:27:34.894Z,3.65
2023-11-14T18:30:01.682Z,5.45
2023-11-14T18:32:28.302Z,4.30
2023-11-14T18:34:54.984Z,4.60
2023-11-14T18:37:21.588Z,4.95
2023-11-14T18:39:48.205Z,5.75
2023-11-14T18:42:14.833Z,5.10
2023-11-14T18:44:50.741Z,5.03
2023-11-14T18:47:24.959Z,4.82
2023-11-14T18:49:51.841Z,5.15
2023-11-14T18:52:18.445Z,5.47
2023-11-14T18:54:45.002Z,5.00
2023-11-14T18:57:11.609Z,4.75
2023-11-14T18:59:38.223Z,5.88
2023-11-14T19:02:04.892Z,5.05
2023-11-14T19:04:31.602Z,6.45
2023-11-14T19:06:58.262Z,4.97
2023-11-14T19:09:25.731Z,4.65
2023-11-14T19:11:52.548Z,5.38
2023-11-14T19:14:19.162Z,5.32
2023-11-14T19:16:47.306Z,4.90
2023-11-14T19:19:14.078Z,4.70
2023-11-14T19:21:45.286Z,3.95
2023-11-14T19:24:13.340Z,5.55
2023-11-14T19:26:40.027Z,5.70
2023-11-14T19:29:06.658Z,4.65
2023-11-14T19:31:33.275Z,4.28
2023-11-14T19:33:59.885Z,4.07
2023-11-14T19:36:26.469Z,4.45
2023-11-14T19:38:53.062Z,4.82
2023-11-14T19:41:19.708Z,4.93
2023-11-14T19:43:46.901Z,4.53
2023-11-14T19:46:13.614Z,4.65
2023-11-14T19:48:40.216Z,5.10
2023-11-14T19:51:06.817Z,4.85
2023-11-14T19:53:33.560Z,5.65
2023-11-14T19:56:00.204Z,5.32
2023-11-14T19:58:26.847Z,7.20
2023-11-14T20:00:53.403Z,4.68
2023-11-14T20:03:20.202Z,4.65
2023-11-14T20:05:46.924Z,5.28
2023-11-14T20:08:13.599Z,5.22
2023-11-14T20:10:40.189Z,5.57
2023-11-14T20:13:06.809Z,5.53
2023-11-14T20:15:33.425Z,5.53
2023-11-14T20:18:00.146Z,6.30
2023-11-14T20:20:26.804Z,4.93
2023-11-14T20:22:53.479Z,5.88
2023-11-14T20:25:20.594Z,5.72
2023-11-14T20:27:47.179Z,4.57
2023-11-14T20:30:14.039Z,5.15
2023-11-14T20:32:40.698Z,4.30
2023-11-14T20:35:07.622Z,4.60
2023-11-14T20:37:34.244Z,4.32
2023-11-14T20:40:00.855Z,4.45
2023-11-14T20:42:27.443Z,4.40
2023-11-14T20:44:54.111Z,5.28
2023-11-14T20:47:20.869Z,4.95
2023-11-14T20:49:47.499Z,4.85
2023-11-14T20:52:14.399Z,5.25
2023-11-14T20:54:40.958Z,4.13
2023-11-14T20:57:07.609Z,5.18
2023-11-14T20:59:34.533Z,4.20
2023-11-14T21:02:01.343Z,4.68
2023-11-14T21:06:23.653Z,4.30
2023-11-14T21:08:50.411Z,5.20
2023-11-14T21:11:17.255Z,3.97
2023-11-14T21:13:44.046Z,5.15
2023-11-14T21:16:10.919Z,5.03
2023-11-14T21:18:37.972Z,3.88
2023-11-14T21:21:06.076Z,4.57
2023-11-14T21:23:32.728Z,5.22
2023-11-14T21:25:59.327Z,3.67
2023-11-14T21:28:25.963Z,4.55
2023-11-14T21:30:52.557Z,4.60
2023-11-14T21:33:19.342Z,4.75
2023-11-14T21:35:46.031Z,4.85
2023-11-14T21:38:12.648Z,4.28
2023-11-14T21:40:39.212Z,3.85
2023-11-14T21:43:05.813Z,3.95
2023-11-14T21:45:32.391Z,4.20
2023-11-14T21:47:59.064Z,3.72
2023-11-14T21:50:25.762Z,4.22
2023-11-14T21:52:52.342Z,3.40
2023-11-14T21:55:19.020Z,4.22
2023-11-14T21:57:45.581Z,4.78
2023-11-14T22:00:13.036Z,4.32
2023-11-14T22:02:39.780Z,4.80
2023-11-14T22:05:06.683Z,4.32
2023-11-14T22:07:33.319Z,4.03
2023-11-14T22:10:03.531Z,3.88
2023-11-14T22:12:31.329Z,4.97
2023-11-14T22:14:58.046Z,4.80
2023-11-14T22:17:24.870Z,4.80
2023-11-14T22:19:51.704Z,4.78
2023-11-14T22:22:18.317Z,3.78
2023-11-14T22:24:44.922Z,3.15
2023-11-14T22:27:11.549Z,4.63
2023-11-14T22:29:38.162Z,4.07
2023-11-14T22:32:05.020Z,5.03
2023-11-14T22:34:31.559Z,4.82
2023-11-14T22:36:58.454Z,4.38
2023-11-14T22:39:25.077Z,4.57
2023-11-14T22:41:51.675Z,4.47
2023-11-14T22:44:18.353Z,4.97
2023-11-14T22:46:45.350Z,4.25
2023-11-14T22:49:11.918Z,3.75
2023-11-14T22:51:38.795Z,3.85
2023-11-14T22:54:05.533Z,3.88
2023-11-14T22:56:32.461Z,3.47
2023-11-14T22:58:59.287Z,3.65
2023-11-14T23:01:26.017Z,4.55
2023-11-14T23:03:52.711Z,4.55
2023-11-14T23:06:19.362Z,4.18
2023-11-14T23:08:46.018Z,4.03
2023-11-14T23:11:12.761Z,3.90
2023-11-14T23:13:39.348Z,5.18
2023-11-14T23:16:06.512Z,3.88
2023-11-14T23:18:33.655Z,4.38
2023-11-14T23:21:00.419Z,4.00
2023-11-14T23:23:27.407Z,3.53
2023-11-14T23:25:53.984Z,3.88
2023-11-14T23:28:20.636Z,4.45
2023-11-14T23:30:47.253Z,4.57
2023-11-14T23:33:13.902Z,4.05
2023-11-14T23:35:40.680Z,5.07
2023-11-14T23:38:07.328Z,5.03
2023-11-14T23:40:33.923Z,5.03
2023-11-14T23:43:00.722Z,5.03
2023-11-14T23:45:27.323Z,4.45
2023-11-14T23:47:54.034Z,4.05
2023-11-14T23:50:20.782Z,4.63
2023-11-14T23:52:48.714Z,4.10
2023-11-14T23:55:15.792Z,4.33
2023-11-14T23:57:42.432Z,4.70
